sensor_id;sensor_type;location;lat;lon;timestamp;P1;durP1;ratioP1;P2;durP2;ratioP2
16308;SDS011;8263;48.880;9.276;2023-12-20T00:00:12;178.85;;;164.20;;
16308;SDS011;8263;48.880;9.276;2023-12-20T00:02:45;180.43;;;165.65;;
16308;SDS011;8263;48.880;9.276;2023-12-20T00:05:14;181.05;;;166.25;;
16308;SDS011;8263;48.880;9.276;2023-12-20T00:07:41;179.35;;;164.70;;
16308;SDS011;8263;48.880;9.276;2023-12-20T00:10:09;181.52;;;166.68;;
16308;SDS011;8263;48.880;9.276;2023-12-20T00:12:39;179.48;;;164.82;;
16308;SDS011;8263;48.880;9.276;2023-12-20T00:15:22;177.43;;;162.98;;
16308;SDS011;8263;48.880;9.276;2023-12-20T00:18:11;180.15;;;165.43;;
16308;SDS011;8263;48.880;9.276;2023-12-20T00:21:12;179.90;;;165.18;;
16308;SDS011;8263;48.880;9.276;2023-12-20T00:23:59;179.32;;;164.68;;
16308;SDS011;8263;48.880;9.276;2023-12-20T07:19:37;177.43;;;163.02;;
16308;SDS011;8263;48.880;9.276;2023-12-20T07:22:04;175.32;;;161.15;;
16308;SDS011;8263;48.880;9.276;2023-12-20T07:24:31;176.07;;;161.77;;
16308;SDS011;8263;48.880;9.276;2023-12-20T07:26:59;176.40;;;162.13;;
16308;SDS011;8263;48.880;9.276;2023-12-20T07:29:25;176.32;;;162.02;;
16308;SDS011;8263;48.880;9.276;2023-12-20T07:31:52;175.70;;;161.50;;
16308;SDS011;8263;48.880;9.276;2023-12-20T07:34:19;177.85;;;163.35;;
16308;SDS011;8263;48.880;9.276;2023-12-20T07:36:47;176.40;;;162.10;;
16308;SDS011;8263;48.880;9.276;2023-12-20T07:39:14;178.30;;;163.80;;
16308;SDS011;8263;48.880;9.276;2023-12-20T07:41:41;174.15;;;160.05;;
16308;SDS011;8263;48.880;9.276;2023-12-20T07:44:08;176.60;;;162.27;;
16308;SDS011;8263;48.880;9.276;2023-12-20T07:46:34;177.95;;;163.50;;
16308;SDS011;8263;48.880;9.276;2023-12-20T07:49:04;171.25;;;157.40;;
16308;SDS011;8263;48.880;9.276;2023-12-20T07:51:31;175.45;;;161.20;;
16308;SDS011;8263;48.880;9.276;2023-12-20T10:32:57;174.98;;;160.57;;
16308;SDS011;8263;48.880;9.276;2023-12-20T10:35:24;173.93;;;159.88;;
16308;SDS011;8263;48.880;9.276;2023-12-20T10:37:51;175.10;;;160.93;;
16308;SDS011;8263;48.880;9.276;2023-12-20T11:07:49;172.00;;;158.15;;
16308;SDS011;8263;48.880;9.276;2023-12-20T11:25:56;172.60;;;158.70;;
16308;SDS011;8263;48.880;9.276;2023-12-20T11:28:24;171.32;;;157.57;;
16308;SDS011;8263;48.880;9.276;2023-12-20T11:30:52;169.63;;;156.02;;
16308;SDS011;8263;48.880;9.276;2023-12-20T11:33:22;172.90;;;157.98;;
16308;SDS011;8263;48.880;9.276;2023-12-20T11:35:49;171.75;;;157.95;;
16308;SDS011;8263;48.880;9.276;2023-12-20T11:38:16;170.15;;;156.55;;
16308;SDS011;8263;48.880;9.276;2023-12-20T11:40:42;172.63;;;158.75;;
16308;SDS011;8263;48.880;9.276;2023-12-20T11:43:11;171.88;;;158.05;;
16308;SDS011;8263;48.880;9.276;2023-12-20T11:45:37;171.85;;;158.07;;
16308;SDS011;8263;48.880;9.276;2023-12-20T11:48:04;170.85;;;157.18;;
16308;SDS011;8263;48.880;9.276;2023-12-20T11:53:10;173.25;;;158.90;;
16308;SDS011;8263;48.880;9.276;2023-12-20T11:55:37;172.55;;;158.68;;
16308;SDS011;8263;48.880;9.276;2023-12-20T11:58:03;171.02;;;157.32;;
16308;SDS011;8263;48.880;9.276;2023-12-20T12:03:07;171.50;;;157.75;;
16308;SDS011;8263;48.880;9.276;2023-12-20T12:05:35;171.73;;;157.93;;
16308;SDS011;8263;48.880;9.276;2023-12-20T12:08:03;173.15;;;159.15;;
16308;SDS011;8263;48.880;9.276;2023-12-20T12:10:30;170.15;;;156.30;;
16308;SDS011;8263;48.880;9.276;2023-12-20T12:12:57;171.38;;;157.63;;
16308;SDS011;8263;48.880;9.276;2023-12-20T12:15:24;171.73;;;157.93;;
16308;SDS011;8263;48.880;9.276;2023-12-20T12:17:54;171.85;;;158.02;;
16308;SDS011;8263;48.880;9.276;2023-12-20T12:20:22;172.15;;;158.30;;
16308;SDS011;8263;48.880;9.276;2023-12-20T12:22:57;172.45;;;158.55;;
16308;SDS011;8263;48.880;9.276;2023-12-20T12:31:44;169.80;;;156.23;;
16308;SDS011;8263;48.880;9.276;2023-12-20T12:34:29;170.15;;;156.50;;
16308;SDS011;8263;48.880;9.276;2023-12-20T12:52:51;173.30;;;159.32;;
16308;SDS011;8263;48.880;9.276;2023-12-20T12:55:19;172.05;;;158.18;;
16308;SDS011;8263;48.880;9.276;2023-12-20T12:57:45;172.95;;;159.02;;
16308;SDS011;8263;48.880;9.276;2023-12-20T13:00:15;170.32;;;156.68;;
16308;SDS011;8263;48.880;9.276;2023-12-20T13:02:54;172.05;;;158.25;;
16308;SDS011;8263;48.880;9.276;2023-12-20T13:05:25;170.35;;;156.65;;
16308;SDS011;8263;48.880;9.276;2023-12-20T13:10:36;173.43;;;159.43;;
16308;SDS011;8263;48.880;9.276;2023-12-20T13:13:03;172.07;;;158.18;;
16308;SDS011;8263;48.880;9.276;2023-12-20T13:15:31;173.52;;;159.52;;
16308;SDS011;8263;48.880;9.276;2023-12-20T13:18:04;170.13;;;156.52;;
16308;SDS011;8263;48.880;9.276;2023-12-20T13:21:05;171.48;;;157.68;;
16308;SDS011;8263;48.880;9.276;2023-12-20T13:23:37;171.18;;;157.43;;
16308;SDS011;8263;48.880;9.276;2023-12-20T13:26:08;172.15;;;158.20;;
16308;SDS011;8263;48.880;9.276;2023-12-20T13:28:37;173.80;;;159.80;;
16308;SDS011;8263;48.880;9.276;2023-12-20T13:31:17;172.05;;;158.25;;
16308;SDS011;8263;48.880;9.276;2023-12-20T13:33:56;171.60;;;157.80;;
16308;SDS011;8263;48.880;9.276;2023-12-20T13:36:23;171.43;;;157.65;;
16308;SDS011;8263;48.880;9.276;2023-12-20T13:38:50;169.25;;;155.75;;
16308;SDS011;8263;48.880;9.276;2023-12-20T13:41:22;170.98;;;157.27;;
16308;SDS011;8263;48.880;9.276;2023-12-20T13:43:57;171.55;;;157.77;;
16308;SDS011;8263;48.880;9.276;2023-12-20T13:46:31;172.13;;;157.88;;
16308;SDS011;8263;48.880;9.276;2023-12-20T13:48:58;171.20;;;157.45;;
16308;SDS011;8263;48.880;9.276;2023-12-20T13:51:26;172.15;;;158.32;;
16308;SDS011;8263;48.880;9.276;2023-12-20T13:53:56;170.57;;;156.85;;
16308;SDS011;8263;48.880;9.276;2023-12-20T13:56:25;172.77;;;158.88;;
16308;SDS011;8263;48.880;9.276;2023-12-20T13:58:53;171.35;;;157.60;;
16308;SDS011;8263;48.880;9.276;2023-12-20T14:01:23;169.95;;;156.35;;
16308;SDS011;8263;48.880;9.276;2023-12-20T14:03:49;172.70;;;158.80;;
16308;SDS011;8263;48.880;9.276;2023-12-20T14:06:16;169.80;;;156.18;;
16308;SDS011;8263;48.880;9.276;2023-12-20T14:08:43;171.82;;;158.00;;
16308;SDS011;8263;48.880;9.276;2023-12-20T14:11:09;171.88;;;157.95;;
16308;SDS011;8263;48.880;9.276;2023-12-20T14:13:39;171.88;;;158.07;;
16308;SDS011;8263;48.880;9.276;2023-12-20T14:16:05;171.80;;;157.90;;
16308;SDS011;8263;48.880;9.276;2023-12-20T14:18:33;170.18;;;156.57;;
16308;SDS011;8263;48.880;9.276;2023-12-20T14:21:00;171.10;;;157.23;;
16308;SDS011;8263;48.880;9.276;2023-12-20T14:23:26;171.43;;;157.68;;
16308;SDS011;8263;48.880;9.276;2023-12-20T14:26:02;169.98;;;156.38;;
16308;SDS011;8263;48.880;9.276;2023-12-20T14:31:24;170.27;;;156.65;;
16308;SDS011;8263;48.880;9.276;2023-12-20T17:17:46;176.52;;;162.23;;
16308;SDS011;8263;48.880;9.276;2023-12-20T17:23:00;174.23;;;160.13;;
16308;SDS011;8263;48.880;9.276;2023-12-20T17:25:26;174.07;;;159.98;;
16308;SDS011;8263;48.880;9.276;2023-12-20T17:27:53;174.23;;;160.13;;
16308;SDS011;8263;48.880;9.276;2023-12-20T17:46:00;174.45;;;160.30;;
16308;SDS011;8263;48.880;9.276;2023-12-20T17:48:27;174.90;;;160.75;;
16308;SDS011;8263;48.880;9.276;2023-12-20T17:50:54;173.50;;;159.52;;
16308;SDS011;8263;48.880;9.276;2023-12-20T17:53:21;173.73;;;159.73;;
16308;SDS011;8263;48.880;9.276;2023-12-20T17:55:47;174.93;;;160.75;;
16308;SDS011;8263;48.880;9.276;2023-12-20T17:58:14;172.90;;;158.60;;
16308;SDS011;8263;48.880;9.276;2023-12-20T18:00:41;175.88;;;161.57;;
16308;SDS011;8263;48.880;9.276;2023-12-20T18:03:10;176.13;;;161.82;;
16308;SDS011;8263;48.880;9.276;2023-12-20T18:05:38;173.82;;;159.75;;
16308;SDS011;8263;48.880;9.276;2023-12-20T18:08:05;174.00;;;159.95;;
16308;SDS011;8263;48.880;9.276;2023-12-20T18:10:32;174.27;;;160.18;;
16308;SDS011;8263;48.880;9.276;2023-12-20T18:12:59;174.73;;;160.57;;
16308;SDS011;8263;48.880;9.276;2023-12-20T18:15:26;175.15;;;160.98;;
16308;SDS011;8263;48.880;9.276;2023-12-20T18:17:53;174.93;;;160.77;;
16308;SDS011;8263;48.880;9.276;2023-12-20T19:56:17;171.98;;;158.10;;
16308;SDS011;8263;48.880;9.276;2023-12-20T19:58:44;173.57;;;159.45;;
16308;SDS011;8263;48.880;9.276;2023-12-20T20:01:10;173.35;;;158.30;;
16308;SDS011;8263;48.880;9.276;2023-12-20T20:03:37;175.40;;;161.10;;
16308;SDS011;8263;48.880;9.276;2023-12-20T20:06:04;173.82;;;159.60;;
16308;SDS011;8263;48.880;9.276;2023-12-20T20:08:31;173.02;;;159.05;;
16308;SDS011;8263;48.880;9.276;2023-12-20T22:41:31;175.80;;;161.55;;
16308;SDS011;8263;48.880;9.276;2023-12-20T22:43:58;174.05;;;159.98;;
16308;SDS011;8263;48.880;9.276;2023-12-20T22:46:24;174.05;;;159.98;;
16308;SDS011;8263;48.880;9.276;2023-12-20T22:48:54;173.27;;;159.27;;
